Time;durP1;ratioP1;P1;durP2;ratioP2;P2;SDS_P1;SDS_P2;PMS_P1;PMS_P2;Temp;Humidity;BMP_temperature;BMP_pressure;BME280_temperature;BME280_humidity;BME280_pressure;Samples;Min_cycle;Max_cycle;Signal;HPM_P1;HPM_P2
2023/04/05 00:01:54;;;;;;;;;18.50;14.50;;;;;10.03;42.32;101619.91;5096711;27;45868;-82
2023/04/05 00:04:19;;;;;;;;;14.50;14.50;;;;;10.00;42.23;101627.91;5097424;27;45641;-81
2023/04/05 00:06:49;;;;;;;;;15.00;13.50;;;;;9.97;42.47;101622.84;5097372;27;45527;-80
2023/04/05 00:09:17;;;;;;;;;12.25;12.25;;;;;9.91;42.56;101622.31;5095399;27;45550;-79
2023/04/05 00:11:43;;;;;;;;;21.50;16.25;;;;;9.93;42.54;101636.16;5097011;27;45615;-79
2023/04/05 00:14:08;;;;;;;;;14.50;12.00;;;;;9.90;42.70;101631.06;5097222;27;46140;-77
2023/04/05 00:16:35;;;;;;;;;15.75;14.75;;;;;9.83;42.50;101622.69;5096899;27;45663;-84
2023/04/05 00:19:00;;;;;;;;;18.25;15.00;;;;;9.78;42.70;101621.22;5096831;27;45767;-81
2023/04/05 00:21:26;;;;;;;;;15.50;12.25;;;;;9.76;42.74;101625.72;5096789;27;46559;-81
2023/04/05 00:23:58;;;;;;;;;20.75;15.25;;;;;9.72;42.81;101627.63;5096751;27;46127;-81
2023/04/05 00:26:24;;;;;;;;;18.00;16.75;;;;;9.65;42.96;101621.88;5098224;27;45683;-76
2023/04/05 00:32:14;;;;;;;;;13.25;11.75;;;;;9.56;43.11;101624.94;5096777;27;46052;-80
2023/04/05 00:34:39;;;;;;;;;13.00;11.25;;;;;9.56;43.00;101624.09;5096953;27;46211;-78
2023/04/05 00:37:05;;;;;;;;;16.50;15.50;;;;;9.53;42.79;101608.56;5096315;27;45639;-79
2023/04/05 00:39:30;;;;;;;;;13.00;11.00;;;;;9.48;43.04;101600.09;5097453;27;45878;-81
2023/04/05 00:41:56;;;;;;;;;16.75;13.25;;;;;9.54;42.57;101613.72;5099969;27;46600;-80
2023/04/05 00:47:43;;;;;;;;;17.75;15.25;;;;;9.54;43.17;101605.03;5098629;27;45693;-82
2023/04/05 00:50:11;;;;;;;;;19.50;16.50;;;;;9.49;43.53;101613.13;5100798;27;45668;-81
2023/04/05 00:52:42;;;;;;;;;19.75;17.50;;;;;9.47;43.62;101611.50;5098946;27;47533;-79
2023/04/05 00:55:09;;;;;;;;;20.75;17.00;;;;;9.41;43.43;101609.19;5096711;27;46102;-82
2023/04/05 00:57:38;;;;;;;;;18.75;15.50;;;;;9.39;43.41;101611.91;5096263;27;46130;-82
2023/04/05 01:00:08;;;;;;;;;15.50;14.75;;;;;9.16;43.55;101571.19;5095891;27;45822;-83
2023/04/05 01:02:38;;;;;;;;;18.50;16.00;;;;;9.35;43.61;101604.25;5096157;27;45705;-80
2023/04/05 01:05:11;;;;;;;;;16.00;14.50;;;;;9.34;43.69;101598.16;5096208;27;46177;-83
2023/04/05 01:07:49;;;;;;;;;12.75;12.75;;;;;9.34;43.83;101606.00;5078743;27;45672;-83
2023/04/05 01:10:16;;;;;;;;;19.25;15.75;;;;;9.28;43.65;101594.09;5096887;27;45527;-78
2023/04/05 01:12:43;;;;;;;;;19.75;17.75;;;;;9.19;43.76;101576.25;5096661;27;46636;-80
2023/04/05 01:15:09;;;;;;;;;10.25;10.25;;;;;9.34;43.59;101595.56;5097706;27;47972;-79
2023/04/05 01:17:38;;;;;;;;;17.25;14.00;;;;;9.34;43.30;101597.34;5096997;27;45612;-78
2023/04/05 01:20:10;;;;;;;;;15.75;13.50;;;;;9.12;43.34;101558.34;5096688;27;45628;-79
2023/04/05 01:23:15;;;;;;;;;15.25;13.75;;;;;9.29;43.38;101584.47;5100435;27;46879;-84
2023/04/05 01:26:24;;;;;;;;;16.25;14.00;;;;;9.26;43.30;101587.25;5100392;27;46356;-80
2023/04/05 01:29:11;;;;;;;;;17.00;14.25;;;;;9.26;43.12;101582.03;5098517;27;45808;-83
2023/04/05 01:31:54;;;;;;;;;16.00;11.75;;;;;9.20;43.02;101571.88;5097144;27;45483;-84
2023/04/05 01:34:44;;;;;;;;;13.25;12.00;;;;;9.24;42.88;101573.41;5097954;27;45474;-86
2023/04/05 01:37:14;;;;;;;;;15.00;14.25;;;;;9.22;43.13;101575.28;5095406;27;46126;-86
2023/04/05 01:39:40;;;;;;;;;14.75;11.50;;;;;9.16;43.11;101565.13;5096263;27;45552;-81
2023/04/05 01:42:06;;;;;;;;;16.25;14.50;;;;;9.17;43.03;101558.97;5096532;27;45676;-85
2023/04/05 01:44:31;;;;;;;;;15.50;14.25;;;;;9.18;43.50;101569.31;5095923;27;46483;-85
2023/04/05 01:46:56;;;;;;;;;15.50;15.25;;;;;9.16;44.23;101563.34;5097514;27;46149;-85
2023/04/05 01:49:23;;;;;;;;;22.50;19.75;;;;;8.98;44.47;101543.34;5112961;27;45651;-86
2023/04/05 01:51:48;;;;;;;;;19.25;17.50;;;;;9.12;44.60;101567.00;5095619;27;45600;-85
2023/04/05 01:54:14;;;;;;;;;24.00;20.00;;;;;9.06;44.46;101562.13;5097746;27;45525;-88
2023/04/05 01:56:40;;;;;;;;;19.25;18.00;;;;;9.09;45.14;101569.78;5097929;27;45660;-85
2023/04/05 01:59:06;;;;;;;;;20.50;18.25;;;;;8.97;44.82;101540.78;5097566;27;45568;-85
2023/04/05 02:01:32;;;;;;;;;20.00;17.25;;;;;9.06;45.37;101566.50;5096244;27;45481;-85
2023/04/05 02:03:57;;;;;;;;;20.00;20.00;;;;;9.07;45.02;101560.34;5097533;27;46205;-86
2023/04/05 02:06:23;;;;;;;;;21.25;20.25;;;;;9.05;45.70;101562.19;5099740;27;46307;-86
2023/04/05 02:08:48;;;;;;;;;23.25;20.50;;;;;9.00;45.60;101559.81;5105919;27;45627;-88
2023/04/05 02:11:13;;;;;;;;;21.50;19.00;;;;;8.90;45.84;101534.19;5109774;27;45451;-81
2023/04/05 02:13:39;;;;;;;;;19.50;18.50;;;;;8.98;45.72;101551.19;5106118;27;47400;-80
2023/04/05 02:16:04;;;;;;;;;13.25;13.25;;;;;8.96;46.40;101555.63;5099382;27;46369;-83
2023/04/05 02:18:30;;;;;;;;;25.00;22.00;;;;;8.93;45.81;101547.09;5097730;27;45706;-83
2023/04/05 02:21:06;;;;;;;;;26.00;21.25;;;;;8.87;46.01;101536.94;5098164;27;45769;-82
2023/04/05 02:23:33;;;;;;;;;24.00;21.75;;;;;8.87;46.40;101537.78;5095038;27;47289;-84
2023/04/05 02:25:58;;;;;;;;;19.25;18.25;;;;;8.82;46.01;101529.34;5075977;27;47779;-85
2023/04/05 02:28:25;;;;;;;;;23.25;19.50;;;;;8.78;46.83;101533.03;5095042;27;45758;-83
2023/04/05 02:34:12;;;;;;;;;25.75;20.25;;;;;8.60;47.18;101539.13;5094483;27;45652;-82
2023/04/05 02:36:40;;;;;;;;;20.00;20.00;;;;;8.44;47.45;101533.78;5093807;27;47072;-80
2023/04/05 02:39:06;;;;;;;;;22.00;18.25;;;;;8.35;47.60;101529.88;5094455;27;45545;-80
2023/04/05 02:41:31;;;;;;;;;19.00;17.00;;;;;8.23;48.26;101533.00;5094693;27;45615;-79
2023/04/05 02:43:57;;;;;;;;;21.00;18.25;;;;;8.11;48.24;101514.44;5094636;27;46396;-79
2023/04/05 02:46:23;;;;;;;;;22.50;18.50;;;;;7.97;48.31;101520.31;5097399;27;46174;-77
2023/04/05 02:48:48;;;;;;;;;22.00;20.50;;;;;7.96;48.52;101531.66;5098004;27;45940;-77
2023/04/05 02:51:13;;;;;;;;;23.25;19.75;;;;;7.76;48.62;101506.50;5097984;27;46069;-79
2023/04/05 02:53:39;;;;;;;;;21.25;17.50;;;;;7.81;48.76;101529.75;5096274;27;47637;-79
2023/04/05 02:56:06;;;;;;;;;23.25;20.00;;;;;7.79;48.72;101515.91;5097271;27;47175;-77
2023/04/05 02:58:31;;;;;;;;;16.25;14.25;;;;;7.80;48.74;101520.22;5097232;27;45861;-77
2023/04/05 03:04:33;;;;;;;;;22.00;20.00;;;;;7.65;48.85;101511.34;5096399;27;45793;-82
2023/04/05 03:07:01;;;;;;;;;25.50;21.00;;;;;7.72;48.81;101520.56;5097730;27;46147;-82
2023/04/05 03:09:32;;;;;;;;;23.00;19.50;;;;;7.63;49.02;101512.31;5097347;27;45991;-83
2023/04/05 03:12:00;;;;;;;;;24.25;18.25;;;;;7.63;49.05;101515.75;5097951;27;45572;-78
2023/04/05 03:14:26;;;;;;;;;21.75;19.50;;;;;7.58;49.13;101500.31;5097927;27;46518;-78
2023/04/05 03:16:52;;;;;;;;;19.75;16.75;;;;;7.58;49.17;101504.69;5097860;27;46212;-81
2023/04/05 03:19:21;;;;;;;;;20.00;15.75;;;;;7.63;49.29;101514.91;5098089;27;45582;-79
2023/04/05 03:21:47;;;;;;;;;18.00;17.50;;;;;7.55;49.37;101508.28;5098313;27;45604;-83
2023/04/05 03:24:12;;;;;;;;;21.00;18.50;;;;;7.59;49.39;101519.44;5097230;27;45870;-80
2023/04/05 03:26:37;;;;;;;;;23.75;21.50;;;;;7.58;49.46;101515.97;5097416;27;46630;-80
2023/04/05 03:29:03;;;;;;;;;23.50;18.25;;;;;7.58;49.40;101507.28;5097679;27;45658;-78
2023/04/05 03:34:51;;;;;;;;;24.75;20.25;;;;;7.59;49.21;101498.56;5099312;27;46247;-80
2023/04/05 03:37:16;;;;;;;;;18.50;18.00;;;;;7.66;49.20;101513.03;5099267;27;46098;-79
2023/04/05 03:39:43;;;;;;;;;20.75;19.00;;;;;7.68;49.42;101515.56;5098884;27;45576;-80
2023/04/05 03:42:08;;;;;;;;;22.75;19.50;;;;;7.67;49.60;101516.47;5097914;27;45759;-81
2023/04/05 03:44:34;;;;;;;;;19.50;17.00;;;;;7.59;49.51;101522.88;5097399;27;47960;-79
2023/04/05 03:50:21;;;;;;;;;20.00;17.25;;;;;7.54;49.56;101517.03;5097794;27;45818;-81
2023/04/05 03:52:46;;;;;;;;;25.25;21.25;;;;;7.46;49.90;101507.81;5097403;27;45611;-82
2023/04/05 03:55:15;;;;;;;;;23.25;21.25;;;;;7.51;49.74;101524.09;5096916;27;46171;-81
2023/04/05 03:57:41;;;;;;;;;22.25;20.75;;;;;7.49;49.74;101520.75;5096806;27;46797;-83
2023/04/05 04:00:16;;;;;;;;;26.75;20.00;;;;;7.45;50.10;101529.63;5097145;27;45727;-82
2023/04/05 04:02:46;;;;;;;;;23.50;19.50;;;;;7.36;50.28;101523.03;5097237;27;45403;-80
2023/04/05 04:05:12;;;;;;;;;21.25;21.00;;;;;7.40;49.95;101531.56;5096728;27;46425;-79
2023/04/05 04:07:50;;;;;;;;;22.25;18.00;;;;;7.24;50.12;101501.84;5097131;27;46140;-80
2023/04/05 04:10:19;;;;;;;;;19.25;16.50;;;;;7.28;50.27;101519.91;5112055;27;46292;-81
2023/04/05 04:12:45;;;;;;;;;24.50;20.75;;;;;7.18;50.52;101512.56;5097481;27;45734;-82
2023/04/05 04:15:12;;;;;;;;;18.00;17.00;;;;;7.12;50.33;101517.13;5096827;27;47338;-82
2023/04/05 04:17:38;;;;;;;;;29.50;21.75;;;;;7.11;50.69;101518.03;5094714;27;46559;-81
2023/04/05 04:20:10;;;;;;;;;21.00;19.25;;;;;7.09;50.75;101513.78;5098043;27;45659;-82
2023/04/05 04:22:40;;;;;;;;;23.00;19.50;;;;;7.04;50.59;101505.31;5099751;27;45630;-82
2023/04/05 04:25:09;;;;;;;;;20.00;17.25;;;;;6.99;50.60;101499.44;5101909;27;46820;-78
2023/04/05 04:27:38;;;;;;;;;24.00;20.00;;;;;7.01;50.82;101505.44;5098957;27;46160;-81
2023/04/05 04:30:06;;;;;;;;;17.50;14.00;;;;;6.86;50.93;101498.25;5098317;27;45643;-82
2023/04/05 04:35:53;;;;;;;;;18.50;13.00;;;;;6.81;51.19;101521.88;5097654;27;46276;-84
2023/04/05 04:38:19;;;;;;;;;26.50;20.75;;;;;6.74;51.24;101513.50;5096951;27;46956;-81
2023/04/05 04:40:49;;;;;;;;;21.75;18.25;;;;;6.70;51.24;101522.31;5112896;27;45697;-84
2023/04/05 04:43:18;;;;;;;;;25.50;19.75;;;;;6.66;51.42;101517.28;5096438;27;45671;-82
2023/04/05 04:45:45;;;;;;;;;27.00;19.50;;;;;6.62;51.71;101513.97;5096625;27;47377;-86
2023/04/05 04:48:13;;;;;;;;;17.50;16.00;;;;;6.60;51.63;101509.72;5096958;27;47051;-84
2023/04/05 04:50:39;;;;;;;;;6.00;3.00;;;;;6.57;51.79;101515.91;5097084;27;45975;-80
2023/04/05 04:53:05;;;;;;;;;24.25;17.00;;;;;6.56;51.71;101510.78;5095200;27;45799;-78
2023/04/05 04:55:32;;;;;;;;;25.50;21.75;;;;;6.55;51.55;101496.91;5096164;27;47322;-78
2023/04/05 04:57:58;;;;;;;;;23.00;21.25;;;;;6.58;51.58;101512.41;5095660;27;46556;-77
2023/04/05 05:00:24;;;;;;;;;26.00;23.00;;;;;6.58;51.87;101503.75;5095953;27;45780;-76
2023/04/05 05:06:15;;;;;;;;;23.25;18.25;;;;;6.51;51.19;101484.94;5094979;27;45943;-79
2023/04/05 05:08:41;;;;;;;;;24.75;20.00;;;;;6.64;50.92;101498.31;5094368;27;47199;-72
2023/04/05 05:11:06;;;;;;;;;25.75;21.50;;;;;6.71;51.42;101502.34;5094136;27;45634;-72
2023/04/05 05:13:32;;;;;;;;;24.25;22.00;;;;;6.74;51.24;101499.63;5095567;27;45565;-73
2023/04/05 05:15:59;;;;;;;;;29.00;24.50;;;;;6.72;51.02;101497.06;5095015;27;46552;-74
2023/04/05 05:18:24;;;;;;;;;26.00;22.50;;;;;6.73;51.63;101493.56;5094495;27;46265;-75
2023/04/05 05:20:50;;;;;;;;;25.75;22.75;;;;;6.72;51.19;101485.81;5095840;27;45546;-75
2023/04/05 05:23:16;;;;;;;;;25.00;22.50;;;;;6.70;51.38;101485.00;5095778;27;45658;-75
2023/04/05 05:25:41;;;;;;;;;23.25;22.00;;;;;6.79;51.31;101499.44;5095265;27;45618;-73
2023/04/05 05:28:07;;;;;;;;;20.75;19.00;;;;;6.79;51.59;101496.81;5095136;27;46118;-75
2023/04/05 05:30:32;;;;;;;;;31.75;21.75;;;;;6.79;51.31;101500.28;5095337;27;45651;-72
2023/04/05 05:36:19;;;;;;;;;28.00;20.50;;;;;6.83;51.46;101493.19;5094907;27;46117;-77
2023/04/05 05:38:45;;;;;;;;;24.25;19.75;;;;;6.85;51.80;101496.56;5094748;27;47045;-73
2023/04/05 05:41:10;;;;;;;;;26.00;23.75;;;;;6.87;51.44;101497.34;5094762;27;45528;-74
2023/04/05 05:43:36;;;;;;;;;27.00;23.75;;;;;6.86;51.55;101495.63;5095183;27;45646;-72
2023/04/05 05:46:01;;;;;;;;;27.25;21.00;;;;;6.88;51.57;101499.88;5094956;27;46049;-76
2023/04/05 05:51:49;;;;;;;;;24.75;19.25;;;;;6.87;51.57;101492.13;5095046;27;45688;-73
2023/04/05 05:54:14;;;;;;;;;26.50;19.50;;;;;6.88;51.44;101492.06;5095069;27;45474;-74
2023/04/05 05:56:40;;;;;;;;;25.50;21.50;;;;;6.91;51.85;101491.94;5094884;27;46374;-74
2023/04/05 05:59:05;;;;;;;;;31.00;23.75;;;;;6.87;51.76;101482.56;5093859;27;47200;-72
2023/04/05 06:01:33;;;;;;;;;18.50;17.25;;;;;6.94;51.71;101496.19;5094054;27;45706;-71
2023/04/05 06:03:59;;;;;;;;;22.25;20.50;;;;;6.94;51.69;101497.03;5094733;27;45538;-73
2023/04/05 06:06:25;;;;;;;;;24.50;20.50;;;;;6.94;51.28;101493.59;5094678;27;45654;-73
2023/04/05 06:08:51;;;;;;;;;27.00;24.00;;;;;6.98;51.95;101502.94;5094290;27;46959;-71
2023/04/05 06:11:21;;;;;;;;;24.00;19.50;;;;;6.91;51.74;101485.91;5094869;27;45691;-71
2023/04/05 06:13:47;;;;;;;;;26.50;23.25;;;;;6.94;51.73;101506.59;5094665;27;45524;-74
2023/04/05 06:16:13;;;;;;;;;24.50;20.75;;;;;6.87;51.78;101498.19;5094491;27;45580;-75
2023/04/05 06:22:00;;;;;;;;;25.75;22.50;;;;;6.92;51.95;101516.22;5094300;27;45592;-73
2023/04/05 06:24:26;;;;;;;;;26.25;22.50;;;;;6.84;51.99;101502.69;5094524;27;45801;-75
2023/04/05 06:26:51;;;;;;;;;32.25;24.50;;;;;6.91;52.03;101511.97;5094665;27;46414;-71
2023/04/05 06:29:16;;;;;;;;;25.25;24.00;;;;;6.89;52.26;101514.63;5093954;27;46277;-74
2023/04/05 06:31:42;;;;;;;;;25.50;23.25;;;;;6.89;52.41;101525.03;5094265;27;45694;-73
2023/04/05 06:37:29;;;;;;;;;32.00;24.25;;;;;6.88;52.23;101512.91;5093932;27;45541;-75
2023/04/05 06:39:55;;;;;;;;;26.75;23.00;;;;;7.00;52.17;101520.22;5094392;27;46074;-75
2023/04/05 10:42:46;;;;;;;;;29.25;26.00;;;;;9.63;41.33;101486.81;5102189;27;46222;-75
2023/04/05 10:45:15;;;;;;;;;23.00;20.50;;;;;9.80;40.86;101476.31;5086507;27;45604;-73
2023/04/05 10:47:52;;;;;;;;;23.50;21.00;;;;;9.99;40.54;101476.97;5086706;27;45846;-72
2023/04/05 10:50:23;;;;;;;;;29.75;26.75;;;;;10.14;40.77;101475.31;5083604;27;46492;-74
2023/04/05 10:52:52;;;;;;;;;26.75;20.25;;;;;10.28;40.44;101478.03;5086616;27;46320;-74
2023/04/05 10:55:18;;;;;;;;;28.75;23.75;;;;;10.37;40.15;101468.81;5085910;27;45968;-74
2023/04/05 10:57:46;;;;;;;;;26.25;24.25;;;;;10.49;39.88;101471.59;5087299;27;45775;-74
2023/04/05 11:00:14;;;;;;;;;25.25;21.50;;;;;10.58;39.84;101472.81;5086771;27;47689;-73
2023/04/05 11:02:39;;;;;;;;;30.50;25.25;;;;;10.67;39.58;101464.47;5085522;27;47565;-73
2023/04/05 11:05:05;;;;;;;;;20.75;19.50;;;;;10.75;39.44;101458.75;5084281;27;45669;-74
2023/04/05 11:07:46;;;;;;;;;28.25;24.50;;;;;10.84;38.69;101460.84;5087274;27;45691;-74
2023/04/05 11:10:17;;;;;;;;;28.00;22.25;;;;;10.93;39.05;101452.44;5094064;27;46467;-73
2023/04/05 11:12:46;;;;;;;;;26.50;22.50;;;;;11.05;38.75;101453.50;5085694;27;46766;-75
2023/04/05 11:15:26;;;;;;;;;21.75;18.75;;;;;11.13;39.13;101444.22;5087113;27;45900;-72
2023/04/05 11:18:10;;;;;;;;;23.75;22.25;;;;;11.23;38.64;101447.97;5086771;27;45881;-72
2023/04/05 11:20:56;;;;;;;;;26.75;23.50;;;;;11.32;38.63;101457.09;5086181;27;45821;-74
2023/04/05 11:23:23;;;;;;;;;23.50;21.00;;;;;11.39;38.35;101445.28;5080403;27;47184;-71
2023/04/05 11:26:02;;;;;;;;;24.25;23.00;;;;;11.48;37.79;101449.13;5086717;27;45849;-72
2023/04/05 11:28:41;;;;;;;;;24.00;20.25;;;;;11.54;37.41;101440.88;5086965;27;45652;-71
2023/04/05 11:31:18;;;;;;;;;23.25;21.00;;;;;11.61;37.12;101453.50;5075181;27;47405;-73
2023/04/05 11:33:44;;;;;;;;;20.50;18.50;;;;;11.68;37.00;101443.50;5096475;27;46063;-73
2023/04/05 11:36:09;;;;;;;;;21.00;18.50;;;;;11.72;36.85;101448.44;5085299;27;45708;-72
2023/04/05 11:38:35;;;;;;;;;20.00;16.75;;;;;11.77;36.68;101432.44;5084167;27;45734;-73
2023/04/05 11:41:16;;;;;;;;;22.25;18.00;;;;;11.83;36.47;101442.56;5085220;27;45681;-72
2023/04/05 11:43:42;;;;;;;;;23.25;20.75;;;;;11.89;36.35;101436.06;5070607;28;48386;-74
2023/04/05 11:46:08;;;;;;;;;24.00;19.00;;;;;11.95;36.34;101430.44;5071346;28;46207;-72
2023/04/05 11:48:33;;;;;;;;;16.50;15.00;;;;;12.02;36.68;101432.59;5072665;27;45870;-73
2023/04/05 11:50:59;;;;;;;;;15.25;14.00;;;;;12.08;36.39;101423.47;5071142;28;46582;-73
2023/04/05 11:53:25;;;;;;;;;22.50;18.25;;;;;12.16;36.25;101423.81;5071793;27;46911;-74
2023/04/05 11:55:51;;;;;;;;;24.00;20.25;;;;;12.20;35.80;101434.00;5068164;28;46143;-72
2023/04/05 11:58:20;;;;;;;;;25.50;20.25;;;;;12.21;34.74;101419.09;5068580;28;45761;-73
2023/04/05 12:00:55;;;;;;;;;17.75;16.00;;;;;12.27;34.42;101416.06;5069574;28;47860;-74
2023/04/05 12:03:20;;;;;;;;;23.75;18.50;;;;;12.32;34.34;101418.41;5070903;28;47175;-73
2023/04/05 12:05:46;;;;;;;;;15.50;13.00;;;;;12.35;33.85;101426.09;5072297;28;45795;-73
2023/04/05 12:08:11;;;;;;;;;20.25;17.00;;;;;12.37;33.49;101416.31;5060890;27;45785;-73
2023/04/05 12:10:37;;;;;;;;;18.25;15.50;;;;;12.40;33.26;101411.72;5070764;28;46960;-73
2023/04/05 12:13:02;;;;;;;;;17.50;15.50;;;;;12.42;33.57;101409.81;5070255;27;46192;-73
2023/04/05 12:15:27;;;;;;;;;17.00;14.75;;;;;12.49;33.30;101402.38;5071878;28;46023;-74
2023/04/05 12:17:53;;;;;;;;;20.00;17.25;;;;;12.56;32.92;101404.50;5071864;27;45766;-73
2023/04/05 12:20:23;;;;;;;;;20.25;16.25;;;;;12.59;33.37;101404.28;5070288;28;47887;-74
2023/04/05 12:22:52;;;;;;;;;17.50;13.50;;;;;12.65;32.43;101391.66;5069102;28;48126;-74
2023/04/05 12:25:18;;;;;;;;;17.00;15.00;;;;;12.66;32.82;101388.94;5070240;28;45801;-74
2023/04/05 12:27:45;;;;;;;;;15.50;13.75;;;;;12.75;32.05;101400.63;5071558;27;45553;-73
2023/04/05 12:30:21;;;;;;;;;15.00;14.25;;;;;12.77;32.00;101394.31;5063507;27;46283;-74
2023/04/05 12:32:50;;;;;;;;;13.75;13.00;;;;;12.81;31.82;101400.22;5071114;27;46428;-73
2023/04/05 12:35:18;;;;;;;;;17.50;14.50;;;;;12.87;32.07;101394.53;5071911;27;45827;-73
2023/04/05 12:37:45;;;;;;;;;13.75;10.25;;;;;12.90;31.91;101389.91;5071702;27;45694;-73
2023/04/05 12:40:11;;;;;;;;;14.25;12.00;;;;;12.91;31.83;101377.59;5071335;27;46715;-73
2023/04/05 12:42:38;;;;;;;;;17.25;15.25;;;;;12.97;31.90;101388.53;5070633;27;45928;-73
2023/04/05 12:45:10;;;;;;;;;18.00;15.00;;;;;13.04;31.61;101381.09;5071278;28;45855;-73
2023/04/05 12:47:47;;;;;;;;;10.25;10.00;;;;;13.07;32.23;101380.84;5067754;27;45610;-74
2023/04/05 12:50:15;;;;;;;;;25.75;18.75;;;;;13.13;32.20;101379.63;5070043;28;47680;-72
2023/04/05 12:52:54;;;;;;;;;15.50;11.75;;;;;13.16;31.93;101366.28;5069263;28;48092;-73
2023/04/05 12:55:20;;;;;;;;;15.00;13.50;;;;;13.17;31.37;101366.16;5070880;27;45656;-74
2023/04/05 12:58:08;;;;;;;;;17.00;15.00;;;;;13.16;31.86;101351.34;5071737;28;45826;-74
2023/04/05 13:00:34;;;;;;;;;15.75;14.25;;;;;13.23;30.83;101355.19;5058438;28;46769;-74
2023/04/05 13:02:59;;;;;;;;;13.00;12.25;;;;;13.24;30.31;101359.50;5071139;27;45656;-74
2023/04/05 13:05:27;;;;;;;;;10.25;10.25;;;;;13.23;29.70;101349.09;5061262;27;45717;-74
2023/04/05 13:07:52;;;;;;;;;13.50;12.75;;;;;13.28;29.89;101368.88;5071603;27;45807;-73
2023/04/05 13:10:22;;;;;;;;;11.25;9.50;;;;;13.31;30.59;101362.56;5069932;28;47750;-73
2023/04/05 13:12:48;;;;;;;;;11.25;10.50;;;;;13.33;30.50;101361.50;5069171;28;47373;-73
2023/04/05 13:15:15;;;;;;;;;14.75;12.00;;;;;13.37;30.09;101346.34;5071571;28;45859;-73
2023/04/05 13:17:41;;;;;;;;;12.25;10.75;;;;;13.39;29.51;101340.00;5071566;27;45746;-73
2023/04/05 13:20:08;;;;;;;;;7.00;5.75;;;;;13.44;30.03;101332.63;5070995;27;46060;-73
2023/04/05 13:22:34;;;;;;;;;16.25;15.00;;;;;13.48;30.06;101330.63;5066990;28;46494;-73
2023/04/05 13:25:00;;;;;;;;;12.75;11.50;;;;;13.49;29.77;101327.06;5071557;27;46663;-74
2023/04/05 13:27:25;;;;;;;;;24.00;17.25;;;;;13.54;30.45;101324.09;5069449;28;45892;-73
2023/04/05 13:29:51;;;;;;;;;13.50;11.50;;;;;13.60;30.72;101321.84;5071463;27;45824;-72
2023/04/05 13:32:16;;;;;;;;;13.50;12.00;;;;;13.64;30.25;101323.31;5069809;27;46854;-74
2023/04/05 13:34:41;;;;;;;;;16.75;13.25;;;;;13.68;29.68;101319.50;5062279;27;45586;-74
2023/04/05 13:37:07;;;;;;;;;16.75;15.00;;;;;13.71;29.68;101310.53;5069577;28;46377;-73
2023/04/05 13:39:32;;;;;;;;;20.00;15.75;;;;;13.73;29.72;101304.19;5068019;27;46184;-74
2023/04/05 13:41:58;;;;;;;;;20.25;17.75;;;;;13.79;29.84;101297.63;5075619;27;48037;-74
2023/04/05 13:44:23;;;;;;;;;19.25;14.50;;;;;13.83;29.85;101307.00;5069554;27;45679;-73
2023/04/05 13:46:48;;;;;;;;;17.75;15.00;;;;;13.87;29.53;101303.19;5069903;28;45848;-73
2023/04/05 13:49:14;;;;;;;;;19.50;16.75;;;;;13.91;29.88;101299.38;5070478;28;46940;-75
2023/04/05 13:51:40;;;;;;;;;19.25;17.00;;;;;13.95;30.20;101305.25;5069602;27;46202;-74
2023/04/05 13:54:10;;;;;;;;;17.25;15.50;;;;;13.99;30.27;101275.91;5070711;27;45654;-75
2023/04/05 13:56:36;;;;;;;;;18.25;16.00;;;;;14.01;29.92;101292.47;5063554;28;45652;-74
2023/04/05 13:59:01;;;;;;;;;16.50;16.25;;;;;14.04;29.81;101281.69;5070811;27;46654;-73
2023/04/05 14:01:27;;;;;;;;;21.00;17.00;;;;;14.10;30.51;101280.38;5069448;27;46016;-74
2023/04/05 14:03:52;;;;;;;;;19.00;17.00;;;;;14.16;30.32;101274.66;5070556;27;46034;-71
2023/04/05 14:06:17;;;;;;;;;3.50;2.00;;;;;14.22;30.27;101277.69;5070493;27;45814;-74
2023/04/05 14:08:43;;;;;;;;;19.75;18.50;;;;;14.25;30.35;101269.53;5070470;28;46277;-72
2023/04/05 14:11:08;;;;;;;;;19.25;14.25;;;;;14.32;30.38;101272.53;5068933;27;46075;-72
2023/04/05 14:13:34;;;;;;;;;23.00;18.25;;;;;14.37;29.94;101277.50;5070518;28;45720;-73
2023/04/05 14:15:59;;;;;;;;;18.25;15.75;;;;;14.39;29.98;101265.91;5070619;27;45568;-72
2023/04/05 14:18:25;;;;;;;;;18.25;16.75;;;;;14.47;29.65;101270.56;5070423;27;45738;-73
2023/04/05 14:20:51;;;;;;;;;19.75;18.25;;;;;14.51;29.82;101262.31;5069127;27;47047;-74
2023/04/05 14:23:17;;;;;;;;;19.75;16.75;;;;;14.51;29.13;101262.31;5068878;28;45704;-73
2023/04/05 14:25:42;;;;;;;;;17.00;13.50;;;;;14.55;29.54;101255.84;5068825;28;46059;-73
2023/04/05 14:28:07;;;;;;;;;21.00;18.75;;;;;14.61;30.00;101251.91;5070076;27;45932;-74
2023/04/05 14:30:35;;;;;;;;;20.00;15.25;;;;;14.66;29.68;101255.84;5063460;28;45942;-74
2023/04/05 14:33:00;;;;;;;;;23.50;17.75;;;;;14.68;29.67;101253.91;5068602;27;45529;-73
2023/04/05 14:35:26;;;;;;;;;23.00;17.50;;;;;14.68;29.55;101238.09;5063232;27;45576;-74
2023/04/05 14:37:51;;;;;;;;;16.25;14.00;;;;;14.73;29.74;101231.66;5070486;27;46381;-73
2023/04/05 14:40:16;;;;;;;;;21.50;18.75;;;;;14.82;30.15;101223.00;5069194;27;46259;-72
2023/04/05 14:42:42;;;;;;;;;17.50;14.00;;;;;14.90;29.89;101229.34;5069781;28;45715;-73
2023/04/05 14:45:08;;;;;;;;;23.25;16.50;;;;;14.96;29.42;101223.56;5068671;28;45826;-73
2023/04/05 14:47:34;;;;;;;;;19.75;17.50;;;;;15.04;29.33;101230.88;5069675;27;45961;-73
2023/04/05 14:49:59;;;;;;;;;20.50;17.00;;;;;15.07;29.10;101226.19;5068710;28;48043;-73
2023/04/05 14:52:25;;;;;;;;;16.00;14.00;;;;;15.10;29.38;101219.84;5068771;28;45783;-73
2023/04/05 14:54:50;;;;;;;;;17.00;13.50;;;;;15.15;29.88;101209.75;5070437;28;45663;-72
2023/04/05 14:57:15;;;;;;;;;16.75;12.75;;;;;15.24;29.86;101206.38;5069799;27;46520;-73
2023/04/05 14:59:42;;;;;;;;;15.00;14.25;;;;;15.32;29.75;101203.97;5069776;27;45695;-73
2023/04/05 15:02:08;;;;;;;;;17.00;14.25;;;;;15.40;29.66;101198.03;5068629;27;46076;-73
2023/04/05 15:04:33;;;;;;;;;16.75;15.75;;;;;15.48;30.00;101196.47;5063919;27;45771;-72
2023/04/05 15:06:59;;;;;;;;;14.25;13.25;;;;;15.56;29.46;101189.72;5070115;27;47281;-72
2023/04/05 15:09:24;;;;;;;;;18.25;14.75;;;;;15.68;29.36;101202.75;5069985;27;46581;-73
2023/04/05 15:11:50;;;;;;;;;15.25;13.75;;;;;15.78;29.02;101192.25;5068314;28;45833;-72
2023/04/05 15:14:15;;;;;;;;;13.75;13.50;;;;;15.91;28.87;101198.22;5070045;27;45847;-72
2023/04/05 15:16:42;;;;;;;;;17.00;13.00;;;;;16.18;28.37;101185.28;5068134;28;46498;-72
2023/04/05 15:19:08;;;;;;;;;17.75;14.25;;;;;16.74;28.14;101179.56;5072912;27;46347;-73
2023/04/05 15:21:35;;;;;;;;;16.75;15.00;;;;;17.74;27.60;101180.28;5072056;28;45763;-73
2023/04/05 15:24:01;;;;;;;;;18.25;15.00;;;;;18.90;26.70;101173.63;5073023;27;45778;-73
2023/04/05 15:26:26;;;;;;;;;18.75;15.25;;;;;20.06;26.14;101176.19;5073315;28;46730;-74
2023/04/05 15:28:52;;;;;;;;;16.50;14.75;;;;;21.04;25.35;101166.84;5073429;27;46371;-73
2023/04/05 15:31:17;;;;;;;;;16.00;14.25;;;;;22.02;24.68;101160.59;5071103;28;46344;-73
2023/04/05 15:33:43;;;;;;;;;15.50;14.25;;;;;22.80;23.50;101160.69;5066158;28;45559;-73
2023/04/05 15:36:09;;;;;;;;;14.75;13.25;;;;;23.54;23.17;101156.53;5071341;28;45846;-73
2023/04/05 15:38:34;;;;;;;;;14.00;10.25;;;;;24.22;22.34;101162.63;5064950;27;45794;-74
2023/04/05 15:40:59;;;;;;;;;18.25;14.25;;;;;24.77;21.65;101155.94;5071934;27;45646;-74
2023/04/05 15:43:25;;;;;;;;;16.50;12.75;;;;;25.31;21.30;101150.97;5073596;27;45726;-74
2023/04/05 15:45:50;;;;;;;;;13.50;13.00;;;;;25.80;20.87;101147.50;5073201;27;46481;-73
2023/04/05 15:48:16;;;;;;;;;15.50;13.00;;;;;26.25;20.04;101144.31;5071766;28;47985;-73
2023/04/05 15:50:42;;;;;;;;;13.50;11.25;;;;;26.81;20.12;101144.16;5070376;28;45795;-74
2023/04/05 15:53:07;;;;;;;;;14.25;14.00;;;;;27.54;19.88;101147.84;5073001;27;45679;-73
2023/04/05 15:55:33;;;;;;;;;14.50;13.75;;;;;28.15;19.79;101144.94;5071759;28;45789;-73
2023/04/05 15:57:58;;;;;;;;;19.50;14.25;;;;;28.61;18.95;101134.00;5073250;27;46457;-74